Terminal Aerodrome Forecast
Issued by NWS Sioux Falls, SD

Home | Current Version | Previous Version | Text Only | Print | Product List | Glossary Off
Versions: 1 2 3 4 5 6 7 8 9 10 11 12 13 14 15 16 17 18 19

000
FTUS43 KFSD 211000 AAA
TAFHON
TAF AMD
KHON 211005Z 2110/2206 13005KT 6SM BR SCT005 SCT100
      TEMPO 2111/2114 3SM BR BKN008
     FM211600 16012KT P6SM BKN200
     FM220500 35009KT P6SM SCT100=

USA.gov is the U.S. government's official web portal to all federal, state and local government web resources and services.